Vekara — OITM — position and weather

sailwx.info

Track history (hours):
 
Tides and Currents Weather Stations Pressure Air Temp Water Temp Dewpoint Dewpoint Depression Visibility Wind Speed Wind Dir Waves Ship Positions

Vekara

Last reported at 2017-Dec-20 23:07 UTC. Time now 2018-Jan-20 13:06 UTC.
Position N 60°28' E 028°07'.
Warning: this ship's position is 30 days out of date.

Length 82 m; draft 3.7 m.

Type: Cargo ship. MMSI: 230325000.

Date/timePositionNaut miles runAvg speedWind from/ knotsBaromVisibWave heightAir tempDewpointWater temp
2017-Dec-20 23:07N 60°28' E 028°07'1 8.2
2017-Dec-20 23:00N 60°28' E 028°05'4 7.6
2017-Dec-20 22:30N 60°27' E 027°58'4 7.9
2017-Dec-20 22:00N 60°26' E 027°50'4 7.8
2017-Dec-20 21:30N 60°27' E 027°42'4 7.3
2017-Dec-20 21:00N 60°27' E 027°35'5 9.4
2017-Dec-20 20:27N 60°26' E 027°24'4 7.3
2017-Dec-20 19:58N 60°24' E 027°19'4 8.3
2017-Dec-20 19:30N 60°22' E 027°12'4 7.7
2017-Dec-20 19:00N 60°22' E 027°04'4 8.1
2017-Dec-20 18:30N 60°22' E 026°56'4 8.5
2017-Dec-20 18:00N 60°22' E 026°48'4 8.5
2017-Dec-20 17:30N 60°21' E 026°39'4 8.7
2017-Dec-20 17:00N 60°20' E 026°31'4 8.5
2017-Dec-20 16:30N 60°18' E 026°23'4 8.9
2017-Dec-20 16:00N 60°17' E 026°15'  
2017-Dec-17 20:54N 59°57' E 024°24'3 8.2
2017-Dec-17 20:30N 59°58' E 024°30'4 7.8
2017-Dec-17 20:00N 60°01' E 024°35'4 8.4
2017-Dec-17 19:30N 60°04' E 024°42'4 8.0
2017-Dec-17 19:00N 60°05' E 024°49'4 7.8
2017-Dec-17 18:30N 60°06' E 024°57'4 8.1
2017-Dec-17 18:00N 60°08' E 025°04'4 8.0
2017-Dec-17 17:30N 60°09' E 025°12'4 8.0
2017-Dec-17 17:00N 60°11' E 025°19'27 7.4
2017-Dec-17 13:22N 60°16' E 026°12'3 8.2
2017-Dec-17 13:00N 60°17' E 026°18'4 8.3
2017-Dec-17 12:30N 60°19' E 026°25'4 8.2
2017-Dec-17 12:00N 60°20' E 026°33'4 8.4
2017-Dec-17 11:30N 60°22' E 026°41'4 8.0
2017-Dec-17 11:00N 60°22' E 026°49'4 8.3
2017-Dec-17 10:30N 60°22' E 026°57'4 8.1
2017-Dec-17 10:00N 60°22' E 027°05'4 8.2
2017-Dec-17 09:30N 60°22' E 027°13'4 7.8
2017-Dec-17 09:00N 60°24' E 027°20'4 7.5
2017-Dec-17 08:30N 60°26' E 027°27'4 7.8
2017-Dec-17 08:00N 60°27' E 027°34'4 7.4
2017-Dec-17 07:30N 60°27' E 027°42'4 7.7
2017-Dec-17 07:00N 60°26' E 027°50'4 8.0
2017-Dec-17 06:30N 60°27' E 027°58'4 8.4
2017-Dec-17 05:59N 60°28' E 028°06'  
2017-Dec-13 12:46N 60°28' E 028°07'2 8.9
2017-Dec-13 12:31N 60°27' E 028°02'5 9.6
2017-Dec-13 12:00N 60°26' E 027°53'4 8.3
2017-Dec-13 11:30N 60°26' E 027°44'4 8.6
2017-Dec-13 11:00N 60°27' E 027°36'5 9.4
2017-Dec-13 10:30N 60°26' E 027°27'4 8.5
2017-Dec-13 10:00N 60°24' E 027°20'5 9.3
2017-Dec-13 09:30N 60°22' E 027°11'5 9.6
2017-Dec-13 09:01N 60°21' E 027°01'5 9.6
2017-Dec-13 08:31N 60°22' E 026°52'510.8
2017-Dec-13 08:01N 60°22' E 026°41'4 8.1
2017-Dec-13 07:31N 60°20' E 026°34'5 9.6
2017-Dec-13 07:01N 60°18' E 026°24'510.3
2017-Dec-13 06:30N 60°16' E 026°15'23 8.4
2017-Dec-13 03:43N 60°12' E 025°29'2 9.5
2017-Dec-13 03:29N 60°12' E 025°24'4 9.4
2017-Dec-13 03:00N 60°10' E 025°16'4 9.1
2017-Dec-13 02:31N 60°09' E 025°08'5 9.1
2017-Dec-13 02:01N 60°07' E 024°59'4 8.9
2017-Dec-13 01:30N 60°06' E 024°50'5 9.1
2017-Dec-13 01:00N 60°04' E 024°42'5 9.2
2017-Dec-13 00:31N 60°01' E 024°35'4 8.6
2017-Dec-13 00:00N 59°58' E 024°29'36 0.9
2017-Dec-11 06:24N 59°49' E 023°19'3 8.0
2017-Dec-11 05:58N 59°50' E 023°26'4 7.4
2017-Dec-11 05:27N 59°52' E 023°33'3 7.3
2017-Dec-11 05:00N 59°53' E 023°39'23 6.0
2017-Dec-11 01:06N 59°57' E 024°24'1 8.0
2017-Dec-11 00:59N 59°57' E 024°26'4 7.8
2017-Dec-11 00:31N 59°59' E 024°32'4 7.5
2017-Dec-11 00:01N 60°02' E 024°37'4 7.5
2017-Dec-10 23:30N 60°04' E 024°43'  
Track history (hours):
 
Tides and Currents Weather Stations Pressure Air Temp Water Temp Dewpoint Dewpoint Depression Visibility Wind Speed Wind Dir Waves Ship Positions

Vekara

Last reported at 2017-Dec-20 23:07 UTC. Time now 2018-Jan-20 13:06 UTC.
Position N 60°28' E 028°07'.
Warning: this ship's position is 30 days out of date.

Length 82 m; draft 3.7 m.

Type: Cargo ship. MMSI: 230325000.

Date/timePositionNaut miles runAvg speedWind from/ knotsBaromVisibWave heightAir tempDewpointWater temp
2017-Dec-20 23:07N 60°28' E 028°07'1 8.2
2017-Dec-20 23:00N 60°28' E 028°05'4 7.6
2017-Dec-20 22:30N 60°27' E 027°58'4 7.9
2017-Dec-20 22:00N 60°26' E 027°50'4 7.8
2017-Dec-20 21:30N 60°27' E 027°42'4 7.3
2017-Dec-20 21:00N 60°27' E 027°35'5 9.4
2017-Dec-20 20:27N 60°26' E 027°24'4 7.3
2017-Dec-20 19:58N 60°24' E 027°19'4 8.3
2017-Dec-20 19:30N 60°22' E 027°12'4 7.7
2017-Dec-20 19:00N 60°22' E 027°04'4 8.1
2017-Dec-20 18:30N 60°22' E 026°56'4 8.5
2017-Dec-20 18:00N 60°22' E 026°48'4 8.5
2017-Dec-20 17:30N 60°21' E 026°39'4 8.7
2017-Dec-20 17:00N 60°20' E 026°31'4 8.5
2017-Dec-20 16:30N 60°18' E 026°23'4 8.9
2017-Dec-20 16:00N 60°17' E 026°15'  
2017-Dec-17 20:54N 59°57' E 024°24'3 8.2
2017-Dec-17 20:30N 59°58' E 024°30'4 7.8
2017-Dec-17 20:00N 60°01' E 024°35'4 8.4
2017-Dec-17 19:30N 60°04' E 024°42'4 8.0
2017-Dec-17 19:00N 60°05' E 024°49'4 7.8
2017-Dec-17 18:30N 60°06' E 024°57'4 8.1
2017-Dec-17 18:00N 60°08' E 025°04'4 8.0
2017-Dec-17 17:30N 60°09' E 025°12'4 8.0
2017-Dec-17 17:00N 60°11' E 025°19'27 7.4
2017-Dec-17 13:22N 60°16' E 026°12'3 8.2
2017-Dec-17 13:00N 60°17' E 026°18'4 8.3
2017-Dec-17 12:30N 60°19' E 026°25'4 8.2
2017-Dec-17 12:00N 60°20' E 026°33'4 8.4
2017-Dec-17 11:30N 60°22' E 026°41'4 8.0
2017-Dec-17 11:00N 60°22' E 026°49'4 8.3
2017-Dec-17 10:30N 60°22' E 026°57'4 8.1
2017-Dec-17 10:00N 60°22' E 027°05'4 8.2
2017-Dec-17 09:30N 60°22' E 027°13'4 7.8
2017-Dec-17 09:00N 60°24' E 027°20'4 7.5
2017-Dec-17 08:30N 60°26' E 027°27'4 7.8
2017-Dec-17 08:00N 60°27' E 027°34'4 7.4
2017-Dec-17 07:30N 60°27' E 027°42'4 7.7
2017-Dec-17 07:00N 60°26' E 027°50'4 8.0
2017-Dec-17 06:30N 60°27' E 027°58'4 8.4
2017-Dec-17 05:59N 60°28' E 028°06'  
2017-Dec-13 12:46N 60°28' E 028°07'2 8.9
2017-Dec-13 12:31N 60°27' E 028°02'5 9.6
2017-Dec-13 12:00N 60°26' E 027°53'4 8.3
2017-Dec-13 11:30N 60°26' E 027°44'4 8.6
2017-Dec-13 11:00N 60°27' E 027°36'5 9.4
2017-Dec-13 10:30N 60°26' E 027°27'4 8.5
2017-Dec-13 10:00N 60°24' E 027°20'5 9.3
2017-Dec-13 09:30N 60°22' E 027°11'5 9.6
2017-Dec-13 09:01N 60°21' E 027°01'5 9.6
2017-Dec-13 08:31N 60°22' E 026°52'510.8
2017-Dec-13 08:01N 60°22' E 026°41'4 8.1
2017-Dec-13 07:31N 60°20' E 026°34'5 9.6
2017-Dec-13 07:01N 60°18' E 026°24'510.3
2017-Dec-13 06:30N 60°16' E 026°15'23 8.4
2017-Dec-13 03:43N 60°12' E 025°29'2 9.5
2017-Dec-13 03:29N 60°12' E 025°24'4 9.4
2017-Dec-13 03:00N 60°10' E 025°16'4 9.1
2017-Dec-13 02:31N 60°09' E 025°08'5 9.1
2017-Dec-13 02:01N 60°07' E 024°59'4 8.9
2017-Dec-13 01:30N 60°06' E 024°50'5 9.1
2017-Dec-13 01:00N 60°04' E 024°42'5 9.2
2017-Dec-13 00:31N 60°01' E 024°35'4 8.6
2017-Dec-13 00:00N 59°58' E 024°29'36 0.9
2017-Dec-11 06:24N 59°49' E 023°19'3 8.0
2017-Dec-11 05:58N 59°50' E 023°26'4 7.4
2017-Dec-11 05:27N 59°52' E 023°33'3 7.3
2017-Dec-11 05:00N 59°53' E 023°39'23 6.0
2017-Dec-11 01:06N 59°57' E 024°24'1 8.0
2017-Dec-11 00:59N 59°57' E 024°26'4 7.8
2017-Dec-11 00:31N 59°59' E 024°32'4 7.5
2017-Dec-11 00:01N 60°02' E 024°37'4 7.5
2017-Dec-10 23:30N 60°04' E 024°43'  

Dump ship's entire track history